createdAt,value
2022-08-05T00:01:36.287Z,5.50
2022-08-05T00:04:19.314Z,5.15
2022-08-05T00:06:51.936Z,5.45
2022-08-05T00:09:19.905Z,4.95
2022-08-05T00:11:56.187Z,5.45
2022-08-05T00:14:29.025Z,5.50
2022-08-05T00:17:02.079Z,5.07
2022-08-05T00:19:33.523Z,4.90
2022-08-05T00:22:15.796Z,4.53
2022-08-05T00:24:45.333Z,5.18
2022-08-05T00:27:16.889Z,11.25
2022-08-05T00:32:15.446Z,7.07
2022-08-05T00:35:04.856Z,5.25
2022-08-05T00:37:53.145Z,5.32
2022-08-05T00:40:29.198Z,5.93
2022-08-05T00:43:07.827Z,5.35
2022-08-05T00:45:42.828Z,5.97
2022-08-05T00:48:13.464Z,5.10
2022-08-05T00:50:46.080Z,5.03
2022-08-05T00:54:00.680Z,4.68
2022-08-05T00:56:07.880Z,4.88
2022-08-05T00:58:38.030Z,4.57
2022-08-05T01:01:08.959Z,5.20
2022-08-05T01:03:40.254Z,4.85
2022-08-05T01:06:14.059Z,4.85
2022-08-05T01:08:47.164Z,5.72
2022-08-05T01:11:36.745Z,5.03
2022-08-05T01:14:15.531Z,4.82
2022-08-05T01:16:54.789Z,4.63
2022-08-05T01:19:46.314Z,4.95
2022-08-05T01:22:28.066Z,4.70
2022-08-05T01:25:19.214Z,4.35
2022-08-05T01:28:23.139Z,4.97
2022-08-05T01:31:04.663Z,4.53
2022-08-05T01:33:42.074Z,4.80
2022-08-05T01:36:21.061Z,4.03
2022-08-05T01:39:01.047Z,4.97
2022-08-05T01:41:34.582Z,4.28
2022-08-05T01:44:09.817Z,4.28
2022-08-05T01:46:41.926Z,4.80
2022-08-05T01:49:24.299Z,4.25
2022-08-05T01:51:58.909Z,5.78
2022-08-05T01:54:46.080Z,4.57
2022-08-05T01:58:11.161Z,4.22
2022-08-05T02:00:15.201Z,3.63
2022-08-05T02:02:54.504Z,4.22
2022-08-05T02:05:38.702Z,4.22
2022-08-05T02:08:12.731Z,3.70
2022-08-05T02:11:11.778Z,4.53
2022-08-05T02:14:02.160Z,4.45
2022-08-05T02:16:52.165Z,4.38
2022-08-05T02:19:46.925Z,4.35
2022-08-05T02:22:29.863Z,3.95
2022-08-05T02:25:12.859Z,4.18
2022-08-05T02:27:59.274Z,4.47
2022-08-05T02:30:35.068Z,3.80
2022-08-05T02:33:09.458Z,3.70
2022-08-05T02:35:50.914Z,4.00
2022-08-05T02:38:35.256Z,4.10
2022-08-05T02:41:17.321Z,3.75
2022-08-05T02:44:06.615Z,4.00
2022-08-05T02:46:53.331Z,4.47
2022-08-05T02:49:36.137Z,4.65
2022-08-05T02:52:11.632Z,4.22
2022-08-05T02:54:52.144Z,4.00
2022-08-05T02:58:09.164Z,4.53
2022-08-05T03:00:13.515Z,4.00
2022-08-05T03:02:47.537Z,4.68
2022-08-05T03:08:07.214Z,4.60
2022-08-05T03:10:35.174Z,4.43
2022-08-05T03:13:16.777Z,4.00
2022-08-05T03:15:51.898Z,4.53
2022-08-05T03:18:29.836Z,3.47
2022-08-05T03:20:57.985Z,3.85
2022-08-05T03:23:30.340Z,4.90
2022-08-05T03:26:05.063Z,3.90
2022-08-05T03:28:50.655Z,4.25
2022-08-05T03:31:55.739Z,4.20
2022-08-05T03:34:11.309Z,4.75
2022-08-05T03:36:38.562Z,4.28
2022-08-05T03:39:12.995Z,4.45
2022-08-05T03:41:47.381Z,4.10
2022-08-05T03:44:22.307Z,4.38
2022-08-05T03:46:49.733Z,3.90
2022-08-05T03:49:21.262Z,4.20
2022-08-05T03:52:50.387Z,5.22
2022-08-05T03:55:52.265Z,5.15
2022-08-05T03:57:44.539Z,4.05
2022-08-05T04:00:16.280Z,4.90
2022-08-05T04:02:58.204Z,4.28
2022-08-05T04:05:34.642Z,5.03
2022-08-05T04:08:14.621Z,5.50
2022-08-05T04:10:56.753Z,6.75
2022-08-05T04:13:49.837Z,5.13
2022-08-05T04:16:24.940Z,5.28
2022-08-05T04:18:57.789Z,4.03
2022-08-05T04:24:22.672Z,4.63
2022-08-05T04:26:52.407Z,4.80
2022-08-05T04:29:24.676Z,4.63
2022-08-05T04:31:54.415Z,5.32
2022-08-05T04:34:32.284Z,4.25
2022-08-05T04:37:04.048Z,4.68
2022-08-05T04:39:35.323Z,5.25
2022-08-05T04:42:03.687Z,5.93
2022-08-05T04:44:33.376Z,6.05
2022-08-05T04:47:09.608Z,5.35
2022-08-05T04:50:01.802Z,5.50
2022-08-05T04:52:33.371Z,4.82
2022-08-05T04:55:13.832Z,5.35
2022-08-05T04:57:51.710Z,5.30
2022-08-05T05:00:23.910Z,4.70
2022-08-05T05:02:53.724Z,4.50
2022-08-05T05:05:28.056Z,4.90
2022-08-05T05:08:04.610Z,4.35
2022-08-05T05:10:56.239Z,5.45
2022-08-05T05:13:26.295Z,4.05
2022-08-05T05:16:06.035Z,4.55
2022-08-05T05:18:38.962Z,5.13
2022-08-05T05:21:06.197Z,4.45
2022-08-05T05:23:39.144Z,4.55
2022-08-05T05:26:28.886Z,4.05
2022-08-05T05:29:00.214Z,3.78
2022-08-05T05:31:35.993Z,4.15
2022-08-05T05:33:59.103Z,3.72
2022-08-05T05:36:28.749Z,4.40
2022-08-05T05:39:00.179Z,3.53
2022-08-05T05:41:40.739Z,4.05
2022-08-05T05:44:35.875Z,3.40
2022-08-05T05:47:04.581Z,4.32
2022-08-05T05:49:45.675Z,10.82
2022-08-05T05:52:26.411Z,4.50
2022-08-05T05:55:02.455Z,3.25
2022-08-05T05:57:42.864Z,4.95
2022-08-05T06:00:21.474Z,3.40
2022-08-05T06:03:03.419Z,4.85
2022-08-05T06:05:55.662Z,4.15
2022-08-05T06:08:32.510Z,3.22
2022-08-05T06:11:05.980Z,3.05
2022-08-05T06:13:40.747Z,3.28
2022-08-05T06:16:29.707Z,3.50
2022-08-05T06:19:05.735Z,4.68
2022-08-05T06:21:37.845Z,3.17
2022-08-05T06:24:12.248Z,3.80
2022-08-05T06:26:51.328Z,3.30
2022-08-05T06:29:25.524Z,4.00
2022-08-05T06:32:17.290Z,3.65
2022-08-05T06:34:56.365Z,3.25
2022-08-05T06:37:56.037Z,3.30
2022-08-05T06:40:27.755Z,3.50
2022-08-05T06:43:01.098Z,3.40
2022-08-05T06:46:03.346Z,2.50
2022-08-05T06:48:52.980Z,3.58
2022-08-05T06:51:09.445Z,3.30
2022-08-05T06:53:39.661Z,3.30
2022-08-05T06:56:25.915Z,3.08
2022-08-05T06:58:55.371Z,2.80
2022-08-05T07:01:32.239Z,3.95
2022-08-05T07:04:02.263Z,3.92
2022-08-05T07:06:37.458Z,3.58
2022-08-05T07:09:05.078Z,3.13
2022-08-05T07:11:37.086Z,4.43
2022-08-05T07:14:48.054Z,3.70
2022-08-05T07:18:01.400Z,3.55
2022-08-05T07:20:34.030Z,3.38
2022-08-05T07:22:50.035Z,4.85
2022-08-05T07:25:54.181Z,3.83
2022-08-05T07:28:17.356Z,3.00
2022-08-05T07:30:50.261Z,2.67
2022-08-05T07:33:36.778Z,3.03
2022-08-05T07:36:20.595Z,4.60
2022-08-05T07:38:54.954Z,2.90
2022-08-05T07:42:13.203Z,3.92
2022-08-05T07:44:19.005Z,2.67
2022-08-05T07:46:55.113Z,3.78
2022-08-05T07:49:26.880Z,2.42
2022-08-05T07:51:59.543Z,2.47
2022-08-05T07:54:33.559Z,3.10
2022-08-05T07:57:22.607Z,3.30
2022-08-05T08:00:06.579Z,3.45
2022-08-05T08:03:15.202Z,2.60
2022-08-05T08:05:31.578Z,2.13
2022-08-05T08:08:12.408Z,2.25
2022-08-05T08:10:44.259Z,2.10
2022-08-05T08:13:21.895Z,2.28
2022-08-05T08:16:34.353Z,2.25
2022-08-05T08:18:50.581Z,1.63
2022-08-05T08:21:24.935Z,2.10
2022-08-05T08:24:00.969Z,2.10
2022-08-05T08:26:32.399Z,1.98
2022-08-05T08:30:04.231Z,1.80
2022-08-05T08:31:55.256Z,2.50
2022-08-05T08:34:30.166Z,1.60
2022-08-05T08:37:03.353Z,2.28
2022-08-05T08:39:37.825Z,1.75
2022-08-05T08:42:32.295Z,2.58
2022-08-05T08:45:18.433Z,1.40
2022-08-05T08:48:10.510Z,2.03
2022-08-05T08:51:03.902Z,2.00
2022-08-05T08:53:44.477Z,2.03
2022-08-05T08:56:12.877Z,1.75
2022-08-05T08:58:47.427Z,2.45
2022-08-05T09:01:21.346Z,1.80
2022-08-05T09:03:57.566Z,1.70
2022-08-05T09:06:32.079Z,1.67
2022-08-05T09:09:06.323Z,2.80
2022-08-05T09:11:51.932Z,1.65
2022-08-05T09:14:58.582Z,1.60
2022-08-05T09:17:15.999Z,2.35
2022-08-05T09:20:02.558Z,1.70
2022-08-05T09:23:18.461Z,1.75
2022-08-05T09:26:02.880Z,1.40
2022-08-05T09:28:38.532Z,1.75
2022-08-05T09:31:43.796Z,1.88
2022-08-05T09:34:13.826Z,1.80
2022-08-05T09:36:54.311Z,1.90
2022-08-05T09:39:45.048Z,1.50
2022-08-05T09:42:23.981Z,1.95
2022-08-05T09:46:04.914Z,1.90
2022-08-05T09:47:57.678Z,1.85
2022-08-05T09:50:38.759Z,2.38
2022-08-05T09:53:23.081Z,1.77
2022-08-05T09:56:04.786Z,1.45
2022-08-05T09:58:41.826Z,2.03
2022-08-05T10:01:15.096Z,1.52
2022-08-05T10:04:10.052Z,1.80
2022-08-05T10:06:54.873Z,1.42
2022-08-05T10:09:30.164Z,1.90
2022-08-05T10:12:18.711Z,1.55
2022-08-05T10:15:20.872Z,2.13
2022-08-05T10:18:17.371Z,2.30
2022-08-05T10:20:49.674Z,2.03
2022-08-05T10:23:55.209Z,1.83
2022-08-05T10:26:14.210Z,1.83
2022-08-05T10:28:47.533Z,2.22
2022-08-05T10:32:47.512Z,2.63
2022-08-05T10:34:11.218Z,1.63
2022-08-05T10:36:40.015Z,2.17
2022-08-05T10:39:24.153Z,1.77
2022-08-05T10:42:14.519Z,2.65
2022-08-05T10:44:50.474Z,2.47
2022-08-05T10:47:27.015Z,2.10
2022-08-05T10:50:33.192Z,2.10
2022-08-05T10:52:59.931Z,1.70
2022-08-05T10:55:27.792Z,1.90
2022-08-05T10:58:16.554Z,1.90
2022-08-05T11:00:55.320Z,1.77
2022-08-05T11:03:35.905Z,2.05
2022-08-05T11:06:15.266Z,1.70
2022-08-05T11:09:13.083Z,1.90
2022-08-05T11:11:53.485Z,1.42
2022-08-05T11:15:01.315Z,2.05
2022-08-05T11:18:09.815Z,2.38
2022-08-05T11:20:39.231Z,2.83
2022-08-05T11:24:02.964Z,2.30
2022-08-05T11:26:33.341Z,1.88
2022-08-05T11:29:11.958Z,1.50
2022-08-05T11:31:57.571Z,1.63
2022-08-05T11:34:51.502Z,2.03
2022-08-05T11:38:30.852Z,2.15
2022-08-05T11:41:35.289Z,1.83
2022-08-05T11:44:08.293Z,1.40
2022-08-05T11:46:58.166Z,3.13
2022-08-05T11:49:29.023Z,1.73
2022-08-05T11:52:11.115Z,2.13
2022-08-05T11:54:48.562Z,1.85
2022-08-05T11:58:08.205Z,2.00
2022-08-05T12:00:31.979Z,1.88
2022-08-05T12:03:31.699Z,2.00
2022-08-05T12:06:06.610Z,1.80
2022-08-05T12:08:55.534Z,1.75
2022-08-05T12:11:28.464Z,1.83
2022-08-05T12:14:10.400Z,1.55
2022-08-05T12:16:45.565Z,1.38
2022-08-05T12:20:26.825Z,1.38
2022-08-05T12:22:02.742Z,1.83
2022-08-05T12:24:33.025Z,1.88
2022-08-05T12:27:09.903Z,1.83
2022-08-05T12:30:05.227Z,2.50
2022-08-05T12:32:36.974Z,1.77
2022-08-05T12:35:16.795Z,2.70
2022-08-05T12:40:29.955Z,1.67
2022-08-05T12:42:57.980Z,1.73
2022-08-05T12:45:42.623Z,1.50
2022-08-05T12:48:32.305Z,1.65
2022-08-05T12:51:21.694Z,1.88
2022-08-05T12:54:05.227Z,1.92
2022-08-05T12:56:49.017Z,1.73
2022-08-05T12:59:46.736Z,1.40
2022-08-05T13:02:12.987Z,1.98
2022-08-05T13:04:54.440Z,1.48
2022-08-05T13:07:55.974Z,1.60
2022-08-05T13:10:20.713Z,1.77
2022-08-05T13:12:57.193Z,1.55
2022-08-05T13:15:41.810Z,2.38
2022-08-05T13:18:21.150Z,1.80
2022-08-05T13:20:51.121Z,1.35
2022-08-05T13:23:22.417Z,2.90
2022-08-05T13:25:59.752Z,2.10
2022-08-05T13:28:29.119Z,9.18
2022-08-05T13:31:03.401Z,2.25
2022-08-05T13:34:22.109Z,2.35
2022-08-05T13:36:37.015Z,1.92
2022-08-05T13:39:24.320Z,2.25
2022-08-05T13:42:01.091Z,1.95
2022-08-05T13:44:31.944Z,2.15
2022-08-05T13:47:08.397Z,1.63
2022-08-05T13:49:45.220Z,1.77
2022-08-05T13:52:29.345Z,1.75
2022-08-05T13:55:01.169Z,1.80
2022-08-05T13:57:48.657Z,3.17
2022-08-05T14:00:16.040Z,1.83
2022-08-05T14:02:46.876Z,1.83
2022-08-05T14:05:29.373Z,4.43
2022-08-05T14:08:11.367Z,1.92
2022-08-05T14:10:53.145Z,1.70
2022-08-05T14:13:28.047Z,3.15
2022-08-05T14:16:04.742Z,1.88
2022-08-05T14:18:37.880Z,1.67
2022-08-05T14:23:55.103Z,2.65
2022-08-05T14:26:35.589Z,2.30
2022-08-05T14:29:16.742Z,1.77
2022-08-05T14:32:03.945Z,1.98
2022-08-05T14:34:38.829Z,2.33
2022-08-05T14:37:13.377Z,2.15
2022-08-05T14:39:49.665Z,2.42
2022-08-05T14:42:21.809Z,3.00
2022-08-05T14:44:49.857Z,1.70
2022-08-05T14:47:58.467Z,2.17
2022-08-05T14:50:17.708Z,1.58
2022-08-05T14:52:57.707Z,1.67
2022-08-05T14:55:39.108Z,1.42
2022-08-05T14:58:11.966Z,2.20
2022-08-05T15:00:59.612Z,2.15
2022-08-05T15:03:33.837Z,2.28
2022-08-05T15:06:15.645Z,1.50
2022-08-05T15:08:59.314Z,1.40
2022-08-05T15:11:51.223Z,1.55
2022-08-05T15:14:34.996Z,1.80
2022-08-05T15:17:44.478Z,1.52
2022-08-05T15:19:57.738Z,1.70
2022-08-05T15:22:29.439Z,1.58
2022-08-05T15:24:59.485Z,1.63
2022-08-05T15:27:35.924Z,2.08
2022-08-05T15:30:10.755Z,1.75
2022-08-05T15:32:43.966Z,2.13
2022-08-05T15:35:14.864Z,1.40
2022-08-05T15:38:33.731Z,2.15
2022-08-05T15:40:59.936Z,2.22
2022-08-05T15:43:20.307Z,1.52
2022-08-05T15:46:00.233Z,1.52
2022-08-05T15:48:30.530Z,1.50
2022-08-05T15:51:03.385Z,1.33
2022-08-05T15:53:38.396Z,2.38
2022-08-05T15:56:20.869Z,1.40
2022-08-05T15:58:48.216Z,1.52
2022-08-05T16:01:22.232Z,2.00
2022-08-05T16:04:06.734Z,3.22
2022-08-05T16:06:38.117Z,1.27
2022-08-05T16:09:08.064Z,5.32
2022-08-05T16:11:43.279Z,3.42
2022-08-05T16:14:17.141Z,4.53
2022-08-05T16:16:46.001Z,3.67
2022-08-05T16:19:25.344Z,3.72
2022-08-05T16:22:04.209Z,3.15
2022-08-05T16:24:41.597Z,1.10
2022-08-05T16:27:32.299Z,0.98
2022-08-05T16:30:25.641Z,1.20
2022-08-05T16:32:54.837Z,1.08
2022-08-05T16:35:28.592Z,0.80
2022-08-05T16:38:02.635Z,1.08
2022-08-05T16:40:55.447Z,1.70
2022-08-05T16:43:28.642Z,2.63
2022-08-05T16:46:05.826Z,52.22
2022-08-05T16:48:38.485Z,8.73
2022-08-05T16:51:09.009Z,31.52
2022-08-05T16:54:04.147Z,77.32
2022-08-05T16:56:24.943Z,139.70
2022-08-05T16:58:57.839Z,72.05
2022-08-05T17:01:27.489Z,38.50
2022-08-05T17:04:16.828Z,62.80
2022-08-05T17:06:54.301Z,55.85
2022-08-05T17:09:21.656Z,33.17
2022-08-05T17:11:59.853Z,37.28
2022-08-05T17:14:36.742Z,37.13
2022-08-05T17:17:14.280Z,27.95
2022-08-05T17:19:46.096Z,17.90
2022-08-05T17:22:17.819Z,15.00
2022-08-05T17:24:58.811Z,16.48
2022-08-05T17:27:33.704Z,15.70
2022-08-05T17:30:18.587Z,19.98
2022-08-05T17:32:54.725Z,19.60
2022-08-05T17:35:22.111Z,19.58
2022-08-05T17:37:54.309Z,18.63
2022-08-05T17:40:31.603Z,15.88
2022-08-05T17:43:01.239Z,17.98
2022-08-05T17:45:40.333Z,11.55
2022-08-05T17:48:10.182Z,9.50
2022-08-05T17:50:43.196Z,5.20
2022-08-05T17:53:10.296Z,8.82
2022-08-05T17:55:40.173Z,8.68
2022-08-05T17:58:13.396Z,6.35
2022-08-05T18:00:46.859Z,6.68
2022-08-05T18:06:11.119Z,5.07
2022-08-05T18:08:44.825Z,6.65
2022-08-05T18:11:23.193Z,4.65
2022-08-05T18:13:55.724Z,5.25
2022-08-05T18:16:25.032Z,7.43
2022-08-05T18:18:54.816Z,5.80
2022-08-05T18:21:28.151Z,6.68
2022-08-05T18:24:16.891Z,6.45
2022-08-05T18:26:48.978Z,9.07
2022-08-05T18:29:16.857Z,6.45
2022-08-05T18:31:49.665Z,6.75
2022-08-05T18:34:17.239Z,7.32
2022-08-05T18:36:49.034Z,22.85
2022-08-05T18:39:42.566Z,22.38
2022-08-05T18:42:11.367Z,8.57
2022-08-05T18:44:51.457Z,7.20
2022-08-05T18:47:26.351Z,9.32
2022-08-05T18:50:15.905Z,10.60
2022-08-05T18:52:51.236Z,8.82
2022-08-05T18:55:20.264Z,6.40
2022-08-05T18:58:02.977Z,7.07
2022-08-05T19:00:37.738Z,9.82
2022-08-05T19:03:11.636Z,7.38
2022-08-05T19:06:13.218Z,8.60
2022-08-05T19:08:41.894Z,8.40
2022-08-05T19:11:11.651Z,6.97
2022-08-05T19:13:49.834Z,7.82
2022-08-05T19:16:33.088Z,6.80
2022-08-05T19:19:13.553Z,6.50
2022-08-05T19:21:40.709Z,6.78
2022-08-05T19:24:12.510Z,6.68
2022-08-05T19:26:43.909Z,7.07
2022-08-05T19:29:35.853Z,7.97
2022-08-05T19:32:11.486Z,7.45
2022-08-05T19:34:54.579Z,8.35
2022-08-05T19:37:29.945Z,8.32
2022-08-05T19:40:15.881Z,8.23
2022-08-05T19:43:05.580Z,7.85
2022-08-05T19:45:37.245Z,6.88
2022-08-05T19:48:14.661Z,6.90
2022-08-05T19:50:46.779Z,7.00
2022-08-05T19:53:16.573Z,5.43
2022-08-05T19:56:15.473Z,52.45
2022-08-05T19:58:54.096Z,9.90
2022-08-05T20:01:28.211Z,7.30
2022-08-05T20:03:55.993Z,5.72
2022-08-05T20:06:29.012Z,9.40
2022-08-05T20:09:13.743Z,7.63
2022-08-05T20:11:41.250Z,9.45
2022-08-05T20:14:26.615Z,7.13
2022-08-05T20:16:55.335Z,6.75
2022-08-05T20:19:24.078Z,9.23
2022-08-05T20:22:03.200Z,9.50
2022-08-05T20:24:34.797Z,7.93
2022-08-05T20:27:02.373Z,6.80
2022-08-05T20:29:32.269Z,6.80
2022-08-05T20:32:04.901Z,8.13
2022-08-05T20:34:40.048Z,7.00
2022-08-05T20:37:24.180Z,6.38
2022-08-05T20:40:01.125Z,6.60
2022-08-05T20:42:28.731Z,6.97
2022-08-05T20:44:58.298Z,6.32
2022-08-05T20:47:32.301Z,8.15
2022-08-05T20:50:02.967Z,7.70
2022-08-05T20:52:43.787Z,9.60
2022-08-05T20:55:54.864Z,9.90
2022-08-05T20:58:05.393Z,11.48
2022-08-05T21:00:49.567Z,10.13
2022-08-05T21:03:24.360Z,8.90
2022-08-05T21:05:54.623Z,8.88
2022-08-05T21:08:41.285Z,6.40
2022-08-05T21:11:11.887Z,11.77
2022-08-05T21:13:48.033Z,8.93
2022-08-05T21:16:29.407Z,8.27
2022-08-05T21:19:03.771Z,9.32
2022-08-05T21:21:39.063Z,7.47
2022-08-05T21:24:09.831Z,7.20
2022-08-05T21:26:41.327Z,7.43
2022-08-05T21:29:12.416Z,7.43
2022-08-05T21:31:42.359Z,8.18
2022-08-05T21:34:12.007Z,8.43
2022-08-05T21:36:39.643Z,7.90
2022-08-05T21:39:14.379Z,9.38
2022-08-05T21:41:52.686Z,12.85
2022-08-05T21:44:27.077Z,9.82
2022-08-05T21:46:55.628Z,9.15
2022-08-05T21:49:56.892Z,8.68
2022-08-05T21:52:27.226Z,8.73
2022-08-05T21:55:06.525Z,7.63
2022-08-05T21:57:42.711Z,7.95
2022-08-05T22:00:13.519Z,9.27
2022-08-05T22:02:43.942Z,7.05
2022-08-05T22:07:58.990Z,5.82
2022-08-05T22:10:29.949Z,6.22
2022-08-05T22:14:06.459Z,5.77
2022-08-05T22:16:00.918Z,5.18
2022-08-05T22:18:41.806Z,5.75
2022-08-05T22:21:19.452Z,5.72
2022-08-05T22:24:09.214Z,5.07
2022-08-05T22:26:59.314Z,4.85
2022-08-05T22:29:33.053Z,5.68
2022-08-05T22:32:02.746Z,4.78
2022-08-05T22:34:33.735Z,5.80
2022-08-05T22:37:04.029Z,5.20
2022-08-05T22:39:33.840Z,4.95
2022-08-05T22:42:12.569Z,5.03
2022-08-05T22:44:48.450Z,6.35
2022-08-05T22:47:30.668Z,5.28
2022-08-05T22:52:52.695Z,5.43
2022-08-05T22:55:26.592Z,5.03
2022-08-05T22:58:14.536Z,5.50
2022-08-05T23:00:44.508Z,5.30
2022-08-05T23:03:15.088Z,5.50
2022-08-05T23:05:44.571Z,5.65
2022-08-05T23:08:14.608Z,5.30
2022-08-05T23:10:43.285Z,5.45
2022-08-05T23:13:12.667Z,5.70
2022-08-05T23:15:40.092Z,5.60
2022-08-05T23:18:15.803Z,5.43
2022-08-05T23:20:48.185Z,6.30
2022-08-05T23:23:16.093Z,5.65
2022-08-05T23:25:51.551Z,5.47
2022-08-05T23:28:28.923Z,6.00
2022-08-05T23:31:02.288Z,5.38
2022-08-05T23:34:04.199Z,6.28
2022-08-05T23:36:40.244Z,5.95
2022-08-05T23:39:16.621Z,5.45
2022-08-05T23:41:48.395Z,5.13
2022-08-05T23:44:16.721Z,5.47
2022-08-05T23:46:44.085Z,5.15
2022-08-05T23:49:15.955Z,5.93
2022-08-05T23:52:03.026Z,6.10
2022-08-05T23:54:36.499Z,6.93
2022-08-05T23:57:07.378Z,6.22
